Time;durP1;ratioP1;P1;durP2;ratioP2;P2;SDS_P1;SDS_P2;PMS_P1;PMS_P2;Temp;Humidity;BMP_temperature;BMP_pressure;BME280_temperature;BME280_humidity;BME280_pressure;Samples;Min_cycle;Max_cycle;Signal;HPM_P1;HPM_P2
2023/12/25 00:02:06;;;;;;;2.13;1.40;;;;;;;11.42;62.31;95031.22;6186611;23;20004;-85
2023/12/25 00:04:35;;;;;;;1.63;1.50;;;;;;;11.57;61.73;95038.94;6186816;23;20004;-84
2023/12/25 00:07:00;;;;;;;2.42;1.20;;;;;;;11.64;61.77;95016.38;6186612;23;20016;-85
2023/12/25 00:09:26;;;;;;;1.10;1.00;;;;;;;11.57;61.95;95018.09;6187550;23;20051;-85
2023/12/25 00:11:51;;;;;;;1.30;0.90;;;;;;;11.65;61.30;95004.97;6187381;23;20009;-86
2023/12/25 00:14:17;;;;;;;1.85;1.00;;;;;;;11.68;61.55;94988.16;6187346;23;20061;-85
2023/12/25 00:16:45;;;;;;;1.90;0.93;;;;;;;11.66;61.36;94993.53;6187116;23;20096;-85
2023/12/25 00:19:10;;;;;;;1.10;1.00;;;;;;;11.92;60.77;94989.53;6187742;23;20012;-85
2023/12/25 00:21:36;;;;;;;1.85;1.30;;;;;;;11.70;61.83;94996.56;6212112;23;20051;-85
2023/12/25 00:26:27;;;;;;;1.83;1.40;;;;;;;11.54;62.31;94982.84;6186496;23;20027;-85
2023/12/25 00:28:56;;;;;;;1.70;1.35;;;;;;;11.46;62.70;94996.00;6162755;23;20012;-85
2023/12/25 00:31:21;;;;;;;3.30;1.88;;;;;;;11.24;63.31;94991.81;6187223;23;20112;-85
2023/12/25 00:38:47;;;;;;;2.55;1.33;;;;;;;11.35;63.07;94992.09;6135284;23;20260;-85
2023/12/25 00:41:12;;;;;;;1.45;1.20;;;;;;;11.26;63.29;94979.41;6074683;23;20002;-85
2023/12/25 00:43:38;;;;;;;1.50;0.93;;;;;;;11.37;63.03;94983.31;6098359;23;20010;-85
2023/12/25 00:46:07;;;;;;;1.88;0.95;;;;;;;11.57;62.38;94996.47;6074276;23;20010;-85
2023/12/25 00:48:33;;;;;;;1.15;1.00;;;;;;;11.69;61.82;94993.16;6075101;23;20085;-85
2023/12/25 00:53:37;;;;;;;2.00;1.00;;;;;;;11.88;61.17;94988.25;6184959;23;20009;-85
2023/12/25 00:56:04;;;;;;;2.95;1.20;;;;;;;11.70;62.00;94991.38;6164166;23;20021;-85
2023/12/25 01:01:05;;;;;;;1.23;1.13;;;;;;;11.75;61.78;95004.63;6154553;23;20053;-85
2023/12/25 01:03:31;;;;;;;1.50;1.10;;;;;;;11.83;61.66;95011.50;6106052;23;20056;-84
2023/12/25 01:05:56;;;;;;;1.50;1.10;;;;;;;11.77;62.00;94999.25;6130641;23;20049;-85
2023/12/25 01:08:22;;;;;;;1.67;1.10;;;;;;;11.61;62.52;95003.72;6130616;23;20100;-85
2023/12/25 01:13:16;;;;;;;1.38;1.00;;;;;;;11.88;61.18;95003.91;6158676;23;20017;-85
2023/12/25 01:15:41;;;;;;;1.38;1.00;;;;;;;11.90;61.44;95007.19;6160599;23;20013;-86
2023/12/25 01:18:07;;;;;;;1.88;0.82;;;;;;;11.93;61.46;95009.38;6160555;23;20016;-85
2023/12/25 01:23:00;;;;;;;0.93;0.82;;;;;;;11.74;62.22;95003.00;6176059;23;20040;-85
2023/12/25 01:25:25;;;;;;;1.23;1.00;;;;;;;11.86;61.98;95011.94;6165616;23;20064;-85
2023/12/25 01:27:51;;;;;;;1.92;1.00;;;;;;;11.88;61.88;95014.31;6190113;23;20047;-85
2023/12/25 01:32:45;;;;;;;1.25;1.10;;;;;;;11.86;61.73;95011.09;6182745;23;20021;-85
2023/12/25 01:35:11;;;;;;;2.30;1.20;;;;;;;11.87;61.94;95020.53;6160349;23;20017;-85
2023/12/25 01:37:36;;;;;;;1.30;1.10;;;;;;;11.96;61.74;95021.25;6184997;23;20012;-85
2023/12/25 01:42:27;;;;;;;1.38;0.95;;;;;;;12.19;60.89;95031.41;6215103;23;20055;-84
2023/12/25 01:44:56;;;;;;;0.85;0.77;;;;;;;12.20;60.56;95033.81;6140593;23;20020;-85
2023/12/25 01:47:21;;;;;;;2.33;1.13;;;;;;;12.06;61.05;95032.94;6163830;23;20013;-85
2023/12/25 01:49:47;;;;;;;1.30;1.05;;;;;;;12.00;61.18;95030.28;6189448;23;20126;-85
2023/12/25 01:54:39;;;;;;;1.13;1.02;;;;;;;12.02;61.22;95044.75;6209981;23;20020;-85
2023/12/25 01:57:05;;;;;;;1.85;0.82;;;;;;;11.93;61.76;95041.44;6164285;23;20016;-85
2023/12/25 01:59:31;;;;;;;1.98;0.95;;;;;;;11.88;61.85;95046.41;6164779;23;20091;-85
2023/12/25 02:06:59;;;;;;;1.23;0.70;;;;;;;12.11;61.20;95059.25;6205740;23;20020;-85
2023/12/25 02:09:24;;;;;;;0.85;0.77;;;;;;;12.06;61.12;95042.56;6163218;23;20009;-85
2023/12/25 02:11:50;;;;;;;0.93;0.80;;;;;;;12.09;61.33;95063.84;6162993;23;20009;-84
2023/12/25 02:14:16;;;;;;;1.13;1.00;;;;;;;12.12;61.12;95073.88;6138320;23;20071;-86
2023/12/25 02:19:20;;;;;;;1.42;1.05;;;;;;;12.08;61.19;95077.06;6209953;23;20016;-85
2023/12/25 02:21:46;;;;;;;1.25;1.15;;;;;;;11.96;61.76;95083.81;6187441;23;20207;-85
2023/12/25 02:26:46;;;;;;;1.85;1.30;;;;;;;11.74;62.59;95068.16;6212695;23;20016;-85
2023/12/25 02:29:12;;;;;;;1.73;1.48;;;;;;;11.64;62.55;95070.28;6163335;23;20019;-86
2023/12/25 02:31:39;;;;;;;1.75;1.30;;;;;;;11.60;62.73;95058.63;6187868;23;20005;-86
2023/12/25 02:34:04;;;;;;;1.50;1.30;;;;;;;12.00;60.63;95048.53;6188380;23;20012;-86
2023/12/25 02:36:30;;;;;;;1.75;1.38;;;;;;;11.64;62.09;95055.44;6188442;23;20011;-85
2023/12/25 02:41:22;;;;;;;3.78;1.73;;;;;;;11.46;62.28;95053.31;6180438;23;20020;-85
2023/12/25 02:43:48;;;;;;;2.45;1.70;;;;;;;11.52;62.78;95051.75;6186393;23;20099;-85
2023/12/25 02:46:15;;;;;;;2.08;1.65;;;;;;;11.26;63.49;95055.72;6187741;23;20040;-85
2023/12/25 02:48:41;;;;;;;1.70;1.58;;;;;;;11.43;63.12;95058.06;6188213;23;20081;-85
2023/12/25 02:51:06;;;;;;;2.53;1.33;;;;;;;11.33;62.85;95046.16;6162652;23;20012;-85
2023/12/25 02:53:35;;;;;;;1.60;1.48;;;;;;;11.40;62.46;95043.59;6162938;23;20078;-85
2023/12/25 02:56:00;;;;;;;2.03;1.60;;;;;;;11.53;62.10;95042.94;6163059;23;20015;-85
2023/12/25 02:58:26;;;;;;;1.40;1.30;;;;;;;11.38;62.44;95039.59;6162922;23;20013;-85
2023/12/25 03:00:51;;;;;;;2.15;1.20;;;;;;;11.58;62.26;95050.19;6180847;23;20110;-85
2023/12/25 03:03:17;;;;;;;1.90;1.10;;;;;;;11.49;62.49;95037.28;6162962;23;20016;-85
2023/12/25 03:05:43;;;;;;;1.70;1.20;;;;;;;11.61;61.90;95044.59;6187248;23;20008;-85
2023/12/25 03:10:33;;;;;;;2.30;1.13;;;;;;;11.52;62.00;95041.34;6206504;23;20012;-88
2023/12/25 03:12:59;;;;;;;1.42;0.90;;;;;;;11.35;60.44;95025.94;6163134;23;20249;-85
2023/12/25 03:15:24;;;;;;;1.73;0.85;;;;;;;11.52;59.98;95025.69;6186462;23;20004;-85
2023/12/25 03:20:15;;;;;;;0.98;0.80;;;;;;;11.88;59.75;95029.97;6212973;23;20024;-86
2023/12/25 03:22:40;;;;;;;0.98;0.80;;;;;;;11.73;60.15;95015.25;6163006;23;20017;-86
2023/12/25 03:25:06;;;;;;;1.05;0.68;;;;;;;11.77;58.65;95001.84;6187485;23;20005;-85
2023/12/25 03:27:32;;;;;;;0.98;0.80;;;;;;;11.90;57.61;94999.34;6162047;23;20018;-85
2023/12/25 03:29:57;;;;;;;1.30;0.70;;;;;;;12.04;57.52;95013.28;6162455;23;20009;-86
2023/12/25 03:32:23;;;;;;;0.80;0.60;;;;;;;12.08;55.03;95001.47;6187402;23;20034;-85
2023/12/25 03:34:49;;;;;;;1.52;0.70;;;;;;;12.01;56.66;95004.00;6138722;23;20084;-85
2023/12/25 03:37:18;;;;;;;2.05;0.63;;;;;;;12.02;56.54;95012.66;6185814;23;20008;-85
2023/12/25 03:39:43;;;;;;;1.23;0.80;;;;;;;12.20;56.23;95006.94;6186532;23;20067;-85
2023/12/25 03:42:09;;;;;;;1.23;0.70;;;;;;;11.96;56.08;94995.19;6162911;23;20016;-85
2023/12/25 03:44:34;;;;;;;0.80;0.68;;;;;;;11.89;56.93;94980.28;6189682;23;20023;-86
2023/12/25 03:47:02;;;;;;;1.38;0.90;;;;;;;12.05;55.72;94981.81;6187115;23;20008;-85
2023/12/25 03:49:30;;;;;;;1.20;0.80;;;;;;;12.17;55.93;94991.69;6212330;23;20000;-86
2023/12/25 03:51:56;;;;;;;1.30;0.80;;;;;;;11.79;55.83;94976.41;6212192;23;20012;-86
2023/12/25 03:54:22;;;;;;;0.85;0.60;;;;;;;11.78;55.61;94978.19;6162284;23;20084;-85
2023/12/25 03:56:48;;;;;;;1.08;0.70;;;;;;;11.91;55.99;94977.50;6187609;23;20088;-86
2023/12/25 04:01:48;;;;;;;1.48;0.73;;;;;;;12.06;52.89;94969.56;6183167;23;20013;-85
2023/12/25 04:04:16;;;;;;;0.70;0.60;;;;;;;12.05;53.01;94965.34;6108268;23;20063;-85
2023/12/25 04:06:42;;;;;;;1.42;0.65;;;;;;;12.16;51.91;94969.22;6157304;23;20005;-85
2023/12/25 04:09:07;;;;;;;1.00;0.73;;;;;;;12.12;52.43;94984.44;6151173;23;20021;-85
2023/12/25 04:11:32;;;;;;;1.58;0.70;;;;;;;12.03;52.54;94975.97;6162139;23;20023;-85
2023/12/25 04:16:25;;;;;;;0.80;0.70;;;;;;;12.07;49.85;94955.53;6208252;23;20092;-85
2023/12/25 04:18:54;;;;;;;0.95;0.70;;;;;;;12.02;50.13;94963.13;6186779;23;20008;-85
2023/12/25 04:21:31;;;;;;;1.00;0.70;;;;;;;11.86;50.45;94951.16;6162990;23;20012;-84
2023/12/25 04:23:57;;;;;;;1.00;0.63;;;;;;;11.88;51.52;94954.38;6211911;23;20000;-85
2023/12/25 04:26:24;;;;;;;1.30;0.77;;;;;;;11.62;52.47;94942.81;6161708;23;20101;-85
2023/12/25 04:28:50;;;;;;;0.80;0.70;;;;;;;11.87;50.06;94950.19;6162265;23;20001;-85
2023/12/25 04:31:16;;;;;;;1.02;0.60;;;;;;;11.82;50.81;94949.94;6162336;23;20015;-85
2023/12/25 04:33:42;;;;;;;1.25;0.70;;;;;;;11.77;51.36;94947.13;6162180;23;20079;-86
2023/12/25 04:36:08;;;;;;;0.60;0.60;;;;;;;11.81;50.98;94941.34;6162367;23;20028;-86
2023/12/25 04:38:35;;;;;;;0.80;0.50;;;;;;;11.89;50.37;94942.97;6183640;23;20021;-86
2023/12/25 04:41:02;;;;;;;1.50;0.70;;;;;;;11.68;49.74;94930.81;6186526;23;20000;-85
2023/12/25 04:43:31;;;;;;;1.02;0.68;;;;;;;11.66;50.61;94938.84;6161663;23;20095;-86
2023/12/25 04:45:56;;;;;;;1.15;0.70;;;;;;;11.40;50.90;94928.22;6186867;23;20011;-85
2023/12/25 04:48:22;;;;;;;0.55;0.50;;;;;;;11.58;50.06;94938.19;6186882;23;20009;-85
2023/12/25 04:50:47;;;;;;;0.70;0.68;;;;;;;11.25;52.28;94929.16;6161752;23;20009;-86
2023/12/25 04:53:15;;;;;;;0.80;0.70;;;;;;;11.31;52.53;94933.59;6207243;23;20016;-85
2023/12/25 04:55:41;;;;;;;1.20;0.80;;;;;;;11.48;52.47;94936.72;6163146;23;20012;-86
2023/12/25 05:00:42;;;;;;;1.45;0.80;;;;;;;11.35;53.94;94931.41;6207524;23;20024;-85
2023/12/25 05:05:33;;;;;;;1.25;0.90;;;;;;;11.32;53.16;94924.78;6212657;23;20027;-85
2023/12/25 05:07:59;;;;;;;1.13;1.02;;;;;;;11.16;54.30;94940.69;6161824;23;20012;-85
2023/12/25 05:10:25;;;;;;;0.80;0.80;;;;;;;11.43;52.65;94938.28;6186536;23;20088;-85
2023/12/25 05:12:50;;;;;;;1.15;0.80;;;;;;;11.31;52.00;94930.97;6162393;23;20028;-85
2023/12/25 05:17:41;;;;;;;1.30;0.80;;;;;;;11.30;52.17;94924.16;6210978;23;20023;-85
2023/12/25 05:20:07;;;;;;;1.30;0.80;;;;;;;11.12;51.44;94919.44;6162141;23;20000;-85
2023/12/25 05:22:33;;;;;;;1.80;0.80;;;;;;;11.11;51.53;94917.00;6186886;23;20012;-85
2023/12/25 05:24:59;;;;;;;1.17;0.80;;;;;;;10.95;51.32;94912.88;6162152;23;20012;-85
2023/12/25 05:27:25;;;;;;;1.70;0.93;;;;;;;10.99;52.70;94921.91;6185416;23;20004;-85
2023/12/25 05:29:53;;;;;;;0.80;0.70;;;;;;;11.08;52.22;94932.97;6161169;23;20086;-84
2023/12/25 05:32:19;;;;;;;2.63;0.73;;;;;;;11.07;52.12;94910.56;6187012;23;20004;-85
2023/12/25 05:34:46;;;;;;;1.20;0.75;;;;;;;11.04;52.77;94910.94;6186272;23;20000;-85
2023/12/25 05:39:47;;;;;;;1.83;0.85;;;;;;;10.94;53.27;94904.25;6205456;23;20024;-85
2023/12/25 05:42:12;;;;;;;1.27;0.77;;;;;;;10.88;52.48;94897.19;6188924;23;20009;-85
2023/12/25 05:44:38;;;;;;;1.65;0.80;;;;;;;11.00;52.87;94904.50;6188236;23;20004;-85
2023/12/25 05:47:06;;;;;;;1.10;0.90;;;;;;;11.15;53.30;94924.25;6164424;23;20091;-85
2023/12/25 05:51:59;;;;;;;0.85;0.80;;;;;;;11.01;54.19;94919.13;6212887;23;20025;-85
2023/12/25 05:54:24;;;;;;;1.95;0.73;;;;;;;10.84;54.91;94906.38;6188822;23;20009;-84
2023/12/25 05:56:50;;;;;;;2.35;0.90;;;;;;;10.86;55.12;94914.78;6188506;23;20012;-84
2023/12/25 06:01:40;;;;;;;0.93;0.70;;;;;;;10.39;56.37;94916.13;6213691;23;20024;-84
2023/12/25 06:04:09;;;;;;;1.50;0.82;;;;;;;10.54;55.72;94914.28;6164357;23;20308;-84
2023/12/25 06:06:36;;;;;;;1.45;0.73;;;;;;;10.14;56.11;94908.63;6164623;23;20019;-85
2023/12/25 06:09:01;;;;;;;0.80;0.75;;;;;;;10.24;55.18;94910.13;6184747;22;20012;-85
2023/12/25 06:11:26;;;;;;;0.80;0.65;;;;;;;10.52;53.37;94908.47;6193782;23;20012;-85
2023/12/25 06:13:54;;;;;;;0.70;0.70;;;;;;;10.64;52.25;94903.59;6192993;23;20015;-86
2023/12/25 06:18:46;;;;;;;0.80;0.60;;;;;;;10.88;51.51;94915.41;6182632;23;20044;-86
2023/12/25 06:21:15;;;;;;;1.10;0.70;;;;;;;10.83;51.14;94914.34;6133847;23;20015;-85
2023/12/25 06:26:15;;;;;;;1.63;0.80;;;;;;;10.96;50.61;94896.25;6216148;23;20016;-85
2023/12/25 06:28:41;;;;;;;1.77;0.73;;;;;;;10.75;50.67;94887.47;6218439;23;20014;-85
2023/12/25 06:31:07;;;;;;;0.68;0.55;;;;;;;10.99;48.92;94902.91;6192685;23;20004;-85
2023/12/25 06:36:08;;;;;;;1.13;0.50;;;;;;;10.78;48.81;94895.91;6210938;23;20017;-85
2023/12/25 06:38:33;;;;;;;0.77;0.70;;;;;;;10.83;49.41;94911.75;6161968;23;20019;-85
2023/12/25 06:41:00;;;;;;;1.00;0.68;;;;;;;10.83;49.74;94912.53;6211311;23;20032;-85
2023/12/25 06:43:25;;;;;;;0.57;0.57;;;;;;;10.62;49.61;94920.34;6187688;23;20008;-86
2023/12/25 06:56:04;;;;;;;0.82;0.80;;;;;;;10.50;49.87;94922.66;6214236;23;20055;-85
2023/12/25 06:58:29;;;;;;;0.80;0.70;;;;;;;10.04;51.67;94915.91;6187752;23;20040;-85
2023/12/25 07:00:55;;;;;;;1.13;0.70;;;;;;;9.97;52.13;94928.00;6187906;23;20013;-85
2023/12/25 07:03:22;;;;;;;0.82;0.70;;;;;;;9.96;52.38;94922.00;6188610;23;20015;-86
2023/12/25 07:10:50;;;;;;;0.75;0.65;;;;;;;10.36;50.24;94926.91;6224467;23;20020;-85
2023/12/25 07:13:15;;;;;;;0.55;0.50;;;;;;;10.36;50.38;94943.28;6218269;23;20121;-85
2023/12/25 07:15:43;;;;;;;0.85;0.60;;;;;;;10.59;49.57;94944.94;6192859;23;20020;-85
2023/12/25 07:18:11;;;;;;;0.93;0.70;;;;;;;10.24;50.87;94949.09;6216932;23;20012;-85
2023/12/25 07:25:37;;;;;;;1.55;0.60;;;;;;;10.46;50.46;94963.81;6224562;23;20027;-85
2023/12/25 07:28:03;;;;;;;0.70;0.60;;;;;;;10.55;49.54;94977.50;6192705;23;20012;-85
2023/12/25 07:30:28;;;;;;;0.80;0.70;;;;;;;10.33;50.25;94968.84;6192720;23;20038;-85
2023/12/25 07:32:54;;;;;;;2.03;0.73;;;;;;;10.56;49.20;94974.72;6217826;23;20008;-85
2023/12/25 07:35:20;;;;;;;0.70;0.60;;;;;;;10.51;49.71;94973.69;6192786;23;20004;-85
2023/12/25 07:37:49;;;;;;;0.80;0.70;;;;;;;10.22;49.75;94971.88;6192491;23;20015;-85
2023/12/25 07:40:15;;;;;;;1.05;0.60;;;;;;;10.32;50.79;94983.66;6192859;23;20008;-86
2023/12/25 07:42:40;;;;;;;0.73;0.60;;;;;;;10.10;51.81;94980.13;6192794;23;20012;-84
2023/12/25 07:50:08;;;;;;;0.95;0.80;;;;;;;10.64;53.21;94996.41;6239635;23;20012;-85
2023/12/25 07:52:33;;;;;;;1.10;0.80;;;;;;;10.74;52.21;94996.94;6192960;23;20020;-85
2023/12/25 07:54:59;;;;;;;1.42;0.90;;;;;;;10.80;52.30;95006.59;6192674;23;20066;-85
2023/12/25 07:57:27;;;;;;;3.30;2.50;;;;;;;10.66;53.33;95004.81;6217950;23;20014;-85
2023/12/25 08:02:19;;;;;;;1.38;1.00;;;;;;;10.50;55.12;94991.06;6181408;23;20020;-85
2023/12/25 08:04:44;;;;;;;2.88;1.73;;;;;;;10.83;54.49;94984.59;6108672;23;20048;-85
2023/12/25 08:07:14;;;;;;;3.30;1.85;;;;;;;11.55;51.50;94989.66;6108489;23;20013;-85
2023/12/25 08:09:41;;;;;;;2.63;1.80;;;;;;;12.47;49.88;94982.59;6132923;23;20009;-85
2023/12/25 08:12:07;;;;;;;3.58;3.28;;;;;;;13.80;46.81;94991.63;6108957;23;20009;-85
2023/12/25 08:16:58;;;;;;;6.10;5.32;;;;;;;15.35;41.81;94999.50;6207948;23;20051;-85
2023/12/25 08:55:19;;;;;;;1.35;0.60;;;;;;;16.48;39.23;95058.06;6151944;23;20017;-85
2023/12/25 08:57:44;;;;;;;1.92;0.60;;;;;;;16.67;37.71;95053.63;6127012;23;20009;-85
2023/12/25 09:00:10;;;;;;;0.82;0.70;;;;;;;15.98;39.91;95056.31;6078413;23;20044;-85
2023/12/25 09:20:46;;;;;;;1.55;0.80;;;;;;;13.68;41.57;95101.22;6212940;23;20030;-85
2023/12/25 09:25:37;;;;;;;1.63;0.88;;;;;;;13.45;42.13;95094.56;6177948;23;20008;-85
2023/12/25 09:28:06;;;;;;;0.90;0.90;;;;;;;13.16;44.22;95090.44;6163499;23;20009;-85
2023/12/25 09:38:07;;;;;;;2.25;0.90;;;;;;;15.61;41.11;95098.13;6243886;22;20027;-83
2023/12/25 09:40:33;;;;;;;0.90;0.80;;;;;;;16.82;37.27;95103.19;6193148;23;20016;-84
2023/12/25 09:42:59;;;;;;;2.47;0.75;;;;;;;18.24;36.08;95103.69;6192081;23;20015;-84
2023/12/25 09:45:36;;;;;;;0.88;0.60;;;;;;;18.30;34.61;95111.50;6192289;23;20016;-84
2023/12/25 09:48:02;;;;;;;1.00;0.77;;;;;;;18.88;34.21;95098.53;6217396;23;20019;-84
2023/12/25 09:50:30;;;;;;;0.90;0.70;;;;;;;19.22;31.28;95093.41;6217012;23;20039;-84
2023/12/25 09:52:55;;;;;;;1.17;0.70;;;;;;;19.39;32.24;95091.63;6217106;23;20003;-84
2023/12/25 09:55:21;;;;;;;0.60;0.50;;;;;;;19.79;31.89;95097.91;6217429;23;20016;-84
2023/12/25 09:57:47;;;;;;;1.52;0.60;;;;;;;19.73;30.75;95095.16;6191526;23;20023;-84
2023/12/25 10:00:13;;;;;;;0.50;0.50;;;;;;;19.62;31.32;95082.81;6217144;23;20004;-85
2023/12/25 10:02:44;;;;;;;0.93;0.60;;;;;;;19.51;30.22;95091.56;6217474;23;20004;-85
2023/12/25 10:05:09;;;;;;;1.38;0.60;;;;;;;19.83;30.88;95096.38;6217380;23;20010;-85
2023/12/25 10:10:00;;;;;;;0.80;0.60;;;;;;;19.73;29.85;95104.94;6219193;23;20107;-85
2023/12/25 10:12:27;;;;;;;0.93;0.70;;;;;;;19.53;27.98;95103.50;6166522;23;20027;-84
2023/12/25 10:14:52;;;;;;;1.15;0.50;;;;;;;19.94;28.01;95097.38;6216456;23;20012;-84
2023/12/25 10:17:18;;;;;;;1.27;0.77;;;;;;;19.84;30.36;95090.88;6191821;23;20091;-85
2023/12/25 10:19:56;;;;;;;1.27;0.70;;;;;;;19.78;29.04;95091.00;6191848;23;20016;-85
2023/12/25 10:22:33;;;;;;;1.92;0.70;;;;;;;20.07;27.04;95081.22;6226028;23;20051;-85
2023/12/25 10:25:07;;;;;;;0.88;0.70;;;;;;;19.88;28.02;95086.72;6191383;23;20016;-85
2023/12/25 10:27:43;;;;;;;1.92;0.70;;;;;;;19.62;27.90;95072.25;6216838;23;20008;-85
2023/12/25 10:30:20;;;;;;;1.27;0.47;;;;;;;19.91;28.79;95070.41;6216098;23;20020;-85
2023/12/25 10:35:18;;;;;;;0.98;0.52;;;;;;;19.41;29.04;95060.53;6201632;23;20017;-85
2023/12/25 10:37:45;;;;;;;0.80;0.60;;;;;;;19.81;27.25;95059.66;6156621;23;20020;-84
2023/12/25 10:40:18;;;;;;;0.60;0.50;;;;;;;19.50;28.80;95050.41;6156691;23;20009;-85
2023/12/25 10:42:48;;;;;;;0.80;0.60;;;;;;;19.64;29.34;95061.47;6156524;23;20005;-84
2023/12/25 10:45:22;;;;;;;0.50;0.50;;;;;;;19.59;28.06;95045.53;6181546;23;20013;-84
2023/12/25 10:48:02;;;;;;;1.58;0.70;;;;;;;19.66;28.21;95043.56;6182677;23;20024;-84
2023/12/25 10:50:36;;;;;;;0.70;0.60;;;;;;;19.76;28.34;95037.66;6184935;23;20048;-84
2023/12/25 10:53:03;;;;;;;0.88;0.80;;;;;;;19.94;27.67;95047.22;6185613;23;20000;-84
2023/12/25 10:55:39;;;;;;;0.75;0.70;;;;;;;19.77;29.27;95032.16;6186297;23;20000;-84
2023/12/25 10:58:10;;;;;;;1.95;0.70;;;;;;;19.67;28.16;95031.97;6185667;23;20019;-84
2023/12/25 11:00:39;;;;;;;0.70;0.70;;;;;;;19.79;28.33;95027.44;6184911;23;20008;-84
2023/12/25 11:03:05;;;;;;;1.08;0.70;;;;;;;19.73;27.49;95023.13;6185869;23;20054;-84
2023/12/25 11:05:31;;;;;;;1.02;0.70;;;;;;;19.68;26.69;95023.00;6136374;23;20036;-85
2023/12/25 11:08:00;;;;;;;0.90;0.70;;;;;;;19.34;28.19;95012.41;6161296;23;20015;-84
2023/12/25 11:12:52;;;;;;;0.60;0.60;;;;;;;18.83;27.70;95022.00;6204401;23;20024;-84
2023/12/25 11:15:17;;;;;;;0.95;0.70;;;;;;;19.29;28.65;95009.72;6136596;23;20055;-84
2023/12/25 11:17:43;;;;;;;1.00;0.80;;;;;;;18.87;28.56;95015.28;6186184;23;20008;-85
2023/12/25 11:20:12;;;;;;;0.80;0.70;;;;;;;18.97;32.29;95017.28;6186128;23;20070;-85
2023/12/25 11:22:40;;;;;;;1.10;0.80;;;;;;;19.12;31.41;95015.72;6186484;23;20004;-85
2023/12/25 11:32:49;;;;;;;0.90;0.75;;;;;;;19.11;32.46;95000.16;6182321;23;20032;-85
2023/12/25 11:35:17;;;;;;;1.52;0.80;;;;;;;18.74;31.63;94985.47;6180124;23;20013;-84
2023/12/25 11:40:08;;;;;;;2.22;0.90;;;;;;;18.49;32.66;94985.00;6183699;23;20024;-84
2023/12/25 11:42:35;;;;;;;1.58;0.77;;;;;;;18.30;31.79;94987.75;6131245;23;20040;-85
2023/12/25 11:45:08;;;;;;;1.88;0.70;;;;;;;17.97;31.31;94983.91;6181044;23;20036;-85
2023/12/25 11:47:44;;;;;;;0.93;0.80;;;;;;;18.21;31.62;94973.34;6180477;23;20064;-84
2023/12/25 11:50:15;;;;;;;1.67;1.30;;;;;;;18.07;32.20;94966.75;6181135;23;20004;-84
2023/12/25 11:52:46;;;;;;;1.48;0.80;;;;;;;18.12;32.00;94961.56;6180692;23;20068;-84
2023/12/25 11:55:19;;;;;;;1.33;1.02;;;;;;;18.14;31.97;94964.75;6180940;23;20013;-85
2023/12/25 11:57:45;;;;;;;1.30;1.20;;;;;;;18.02;34.46;94956.09;6156866;23;20020;-85
2023/12/25 12:00:26;;;;;;;1.20;1.10;;;;;;;18.09;34.90;94954.16;6156304;23;20009;-84
2023/12/25 12:02:52;;;;;;;1.70;1.27;;;;;;;17.88;37.40;94958.16;6181040;23;20127;-85
2023/12/25 12:05:18;;;;;;;1.85;1.40;;;;;;;17.88;37.19;94956.31;6181626;23;20017;-84
2023/12/25 12:07:45;;;;;;;1.60;1.30;;;;;;;17.66;37.05;94957.91;6156226;23;20087;-85
2023/12/25 12:12:47;;;;;;;1.60;1.30;;;;;;;17.52;37.52;94939.72;6181634;23;20025;-85
2023/12/25 12:15:13;;;;;;;1.80;1.33;;;;;;;17.28;37.61;94941.50;6106930;23;20067;-85
2023/12/25 12:17:39;;;;;;;1.10;1.00;;;;;;;17.53;36.75;94951.81;6144656;23;20029;-85
2023/12/25 12:25:15;;;;;;;1.70;1.00;;;;;;;17.69;32.95;94944.28;6178099;23;20020;-85
2023/12/25 12:27:41;;;;;;;1.50;0.82;;;;;;;17.73;34.23;94946.22;6216123;23;20095;-85
2023/12/25 12:30:08;;;;;;;1.58;1.00;;;;;;;17.92;33.58;94941.69;6215980;23;20062;-85
2023/12/25 12:32:35;;;;;;;1.92;0.90;;;;;;;17.91;33.82;94945.31;6216909;23;20004;-85
2023/12/25 12:35:00;;;;;;;1.65;0.90;;;;;;;17.71;33.57;94942.25;6216279;23;20060;-85
2023/12/25 12:47:50;;;;;;;1.35;0.90;;;;;;;17.77;32.58;94951.84;6210883;23;20024;-85
2023/12/25 12:52:56;;;;;;;1.25;1.10;;;;;;;17.54;32.34;94960.53;6205116;23;20036;-85
2023/12/25 13:10:44;;;;;;;2.17;1.40;;;;;;;16.53;38.47;94957.66;6206038;23;20083;-85
2023/12/25 13:13:10;;;;;;;2.00;1.67;;;;;;;16.70;37.94;94955.25;6160727;23;20087;-85
2023/12/25 13:15:36;;;;;;;2.67;1.50;;;;;;;16.49;37.70;94961.78;6185319;23;20125;-84
2023/12/25 13:18:02;;;;;;;2.15;1.50;;;;;;;16.33;38.40;94966.56;6161427;23;20032;-86
2023/12/25 13:22:56;;;;;;;1.70;1.40;;;;;;;16.01;39.23;94966.72;6185145;23;20016;-85
2023/12/25 13:25:21;;;;;;;2.30;1.40;;;;;;;16.34;39.69;94976.06;6162177;23;20008;-86
2023/12/25 13:27:47;;;;;;;1.92;1.40;;;;;;;16.06;39.34;94970.50;6161546;23;20012;-85
2023/12/25 13:30:13;;;;;;;2.15;1.50;;;;;;;16.29;39.55;94983.78;6186272;23;20015;-85
2023/12/25 13:37:38;;;;;;;1.50;1.40;;;;;;;15.80;39.76;94980.22;6209191;23;20020;-86
2023/12/25 13:42:33;;;;;;;2.85;1.50;;;;;;;15.30;40.98;94975.75;6204553;23;20079;-85
2023/12/25 13:44:58;;;;;;;2.72;1.63;;;;;;;15.19;41.19;94982.50;6185594;23;20019;-85
2023/12/25 13:47:24;;;;;;;3.83;1.70;;;;;;;15.09;41.26;94976.91;6160616;23;20005;-86
2023/12/25 13:49:50;;;;;;;3.08;1.70;;;;;;;14.88;41.67;94972.78;6160948;23;20103;-86
2023/12/25 13:52:16;;;;;;;1.95;1.48;;;;;;;14.47;42.20;94977.41;6184989;23;20009;-85
2023/12/25 14:14:56;;;;;;;2.03;1.60;;;;;;;13.85;42.88;94968.31;6210132;23;20020;-84
2023/12/25 14:17:21;;;;;;;3.53;1.60;;;;;;;14.04;42.16;94972.69;6187665;23;20012;-85
2023/12/25 14:19:49;;;;;;;1.60;1.40;;;;;;;14.14;42.52;94979.31;6163728;23;20004;-85
2023/12/25 14:22:15;;;;;;;3.10;1.67;;;;;;;14.16;42.30;94975.47;6163381;23;20016;-84
2023/12/25 14:24:40;;;;;;;1.90;1.40;;;;;;;14.34;41.63;94979.28;6162997;23;20012;-85
2023/12/25 14:29:42;;;;;;;1.50;1.40;;;;;;;14.43;41.42;94981.44;6213125;23;20029;-85
2023/12/25 14:32:07;;;;;;;2.15;1.52;;;;;;;14.36;41.95;94980.66;6163427;23;20028;-85
2023/12/25 14:34:34;;;;;;;2.58;1.67;;;;;;;14.30;41.76;94962.34;6163057;23;20095;-85
2023/12/25 14:37:00;;;;;;;1.85;1.60;;;;;;;14.48;41.00;94965.09;6138131;23;20051;-85
2023/12/25 14:39:26;;;;;;;1.45;1.35;;;;;;;14.26;41.17;94964.59;6186779;23;20005;-85
2023/12/25 14:41:52;;;;;;;1.90;1.38;;;;;;;14.32;40.05;94953.31;6187058;23;20009;-85
2023/12/25 14:49:27;;;;;;;2.47;1.50;;;;;;;14.42;39.94;94952.88;6212762;23;20021;-85
2023/12/25 14:51:53;;;;;;;2.33;1.50;;;;;;;14.14;40.53;94951.34;6162803;23;20038;-85
2023/12/25 14:54:18;;;;;;;1.42;1.30;;;;;;;14.11;40.74;94954.38;6163241;23;20012;-85
2023/12/25 14:56:47;;;;;;;2.80;1.40;;;;;;;14.10;41.48;94954.59;6162659;23;20012;-85
2023/12/25 15:01:38;;;;;;;2.28;1.33;;;;;;;14.16;41.89;94946.69;6212751;23;20029;-84
2023/12/25 15:04:03;;;;;;;1.50;1.30;;;;;;;13.90;42.77;94945.00;6162730;23;20000;-85
2023/12/25 15:06:29;;;;;;;2.30;1.50;;;;;;;13.90;42.91;94947.59;6162069;23;20008;-85
2023/12/25 15:08:57;;;;;;;3.22;1.60;;;;;;;13.94;43.39;94954.03;6138656;23;20042;-85
2023/12/25 15:11:23;;;;;;;2.67;1.98;;;;;;;13.91;42.66;94945.78;6138521;23;20091;-85
2023/12/25 15:13:48;;;;;;;4.57;2.67;;;;;;;13.73;43.22;94955.06;6138809;23;20051;-85
2023/12/25 15:16:14;;;;;;;5.03;4.00;;;;;;;13.58;43.72;94942.22;6162529;23;20103;-85
2023/12/25 15:21:05;;;;;;;2.28;1.60;;;;;;;13.37;44.15;94934.59;6207106;23;20043;-85
2023/12/25 15:23:30;;;;;;;2.15;1.60;;;;;;;13.57;43.19;94935.38;6138340;23;20023;-85
2023/12/25 15:25:56;;;;;;;1.48;1.35;;;;;;;13.44;43.64;94946.66;6139924;23;20008;-85
2023/12/25 15:28:21;;;;;;;1.73;1.50;;;;;;;13.48;42.46;94937.41;6186768;23;20080;-85
2023/12/25 15:33:22;;;;;;;1.80;1.27;;;;;;;13.16;42.69;94948.63;6210298;23;20078;-84
2023/12/25 15:35:51;;;;;;;2.70;1.30;;;;;;;13.04;42.51;94944.00;6138086;23;20020;-85
2023/12/25 15:40:42;;;;;;;2.22;1.40;;;;;;;13.02;42.81;94939.97;6208987;23;20058;-84
2023/12/25 15:43:11;;;;;;;1.52;1.42;;;;;;;12.92;42.81;94942.97;6162415;23;20019;-84
2023/12/25 15:45:37;;;;;;;1.88;1.30;;;;;;;12.87;43.02;94940.97;6138490;23;20015;-85
2023/12/25 15:48:04;;;;;;;3.15;1.70;;;;;;;12.62;44.39;94937.28;6137408;23;20012;-85
2023/12/25 15:52:57;;;;;;;2.70;1.90;;;;;;;12.26;45.17;94951.41;6186126;22;20020;-85
2023/12/25 15:55:22;;;;;;;2.50;1.88;;;;;;;11.78;45.77;94936.50;6187838;23;20013;-85
2023/12/25 16:00:23;;;;;;;2.28;1.65;;;;;;;11.79;46.06;94948.53;6183031;23;20028;-84
2023/12/25 16:02:49;;;;;;;2.40;1.90;;;;;;;11.65;45.67;94937.25;6108636;23;20011;-84